createdAt,value
2024-04-14T00:00:15.673Z,19.58
2024-04-14T00:02:44.738Z,19.55
2024-04-14T00:05:12.770Z,19.54
2024-04-14T00:10:24.847Z,19.59
2024-04-14T00:12:52.157Z,19.50
2024-04-14T00:15:21.255Z,19.50
2024-04-14T00:17:48.549Z,19.54
2024-04-14T00:20:16.169Z,19.54
2024-04-14T00:25:38.605Z,19.53
2024-04-14T00:28:05.906Z,19.49
2024-04-14T00:30:33.188Z,19.50
2024-04-14T00:33:00.438Z,19.48
2024-04-14T00:35:29.595Z,19.49
2024-04-14T00:40:41.655Z,19.51
2024-04-14T00:43:09.649Z,19.55
2024-04-14T00:45:38.748Z,19.53
2024-04-14T00:48:07.846Z,19.51
2024-04-14T00:50:35.056Z,19.51
2024-04-14T00:55:49.751Z,19.41
2024-04-14T00:58:16.940Z,19.48
2024-04-14T01:00:44.391Z,19.47
2024-04-14T01:03:11.674Z,19.46
2024-04-14T01:05:40.723Z,19.43
2024-04-14T01:10:56.030Z,19.49
2024-04-14T01:13:23.129Z,19.41
2024-04-14T01:15:50.383Z,19.47
2024-04-14T01:18:19.430Z,19.46
2024-04-14T01:20:46.673Z,19.41
2024-04-14T01:25:58.351Z,19.39
2024-04-14T01:28:25.542Z,19.40
2024-04-14T01:30:52.892Z,19.38
2024-04-14T01:33:20.106Z,19.42
2024-04-14T01:35:47.288Z,19.40
2024-04-14T01:41:02.008Z,19.41
2024-04-14T01:43:29.123Z,19.40
2024-04-14T01:45:58.189Z,19.41
2024-04-14T01:48:25.506Z,19.44
2024-04-14T01:50:52.685Z,19.45
2024-04-14T01:56:04.467Z,19.33
2024-04-14T01:58:32.427Z,19.30
2024-04-14T02:00:59.608Z,19.32
2024-04-14T02:03:26.960Z,19.31
2024-04-14T02:05:54.196Z,19.33
2024-04-14T02:11:11.596Z,19.21
2024-04-14T02:13:40.670Z,19.22
2024-04-14T02:16:10.613Z,19.25
2024-04-14T02:18:39.682Z,19.26
2024-04-14T02:21:08.741Z,19.29
2024-04-14T02:26:34.465Z,19.08
2024-04-14T02:29:04.395Z,19.06
2024-04-14T02:31:32.380Z,19.15
2024-04-14T02:33:59.625Z,19.17
2024-04-14T02:36:26.893Z,19.20
2024-04-14T02:41:38.793Z,19.15
2024-04-14T02:44:05.985Z,19.05
2024-04-14T02:46:33.203Z,19.07
2024-04-14T02:49:01.261Z,18.99
2024-04-14T02:51:28.589Z,19.01
2024-04-14T02:56:50.993Z,19.00
2024-04-14T02:59:18.999Z,18.94
2024-04-14T03:01:47.119Z,19.01
2024-04-14T03:04:14.598Z,18.91
2024-04-14T03:06:44.660Z,18.91
2024-04-14T03:11:56.275Z,19.02
2024-04-14T03:14:23.497Z,19.02
2024-04-14T03:16:50.766Z,18.99
2024-04-14T03:19:18.020Z,19.06
2024-04-14T03:21:45.253Z,19.00
2024-04-14T03:26:58.170Z,18.93
2024-04-14T03:29:25.327Z,18.93
2024-04-14T03:31:52.608Z,18.90
2024-04-14T03:34:19.868Z,19.00
2024-04-14T03:36:47.070Z,19.09
2024-04-14T03:39:16.999Z,19.08
2024-04-14T03:41:45.005Z,19.08
2024-04-14T03:44:12.183Z,19.08
2024-04-14T03:46:41.220Z,19.10
2024-04-14T03:49:08.466Z,19.04
2024-04-14T03:51:35.802Z,19.00
2024-04-14T03:54:03.024Z,19.05
2024-04-14T03:56:30.185Z,18.99
2024-04-14T03:58:57.334Z,19.03
2024-04-14T04:01:24.713Z,18.97
2024-04-14T04:03:51.979Z,18.86
2024-04-14T04:06:21.131Z,18.89
2024-04-14T04:08:49.121Z,18.96
2024-04-14T04:11:16.396Z,18.94
2024-04-14T04:13:43.549Z,19.01
2024-04-14T04:16:13.470Z,18.99
2024-04-14T04:18:43.521Z,18.98
2024-04-14T04:21:14.309Z,18.91
2024-04-14T04:23:41.381Z,18.89
2024-04-14T04:26:08.547Z,18.92
2024-04-14T04:28:35.680Z,18.83
2024-04-14T04:31:02.901Z,18.86
2024-04-14T04:33:30.224Z,18.89
2024-04-14T04:35:57.445Z,18.79
2024-04-14T04:38:26.495Z,18.87
2024-04-14T04:40:54.517Z,18.93
2024-04-14T04:43:21.674Z,18.86
2024-04-14T04:45:48.890Z,18.90
2024-04-14T04:48:18.016Z,18.92
2024-04-14T04:50:45.262Z,18.91
2024-04-14T04:53:12.410Z,18.91
2024-04-14T04:55:39.573Z,18.97
2024-04-14T04:58:09.492Z,18.99
2024-04-14T05:00:39.528Z,18.95
2024-04-14T05:03:06.766Z,19.03
2024-04-14T05:05:33.943Z,18.99
2024-04-14T05:08:02.953Z,18.98
2024-04-14T05:10:32.272Z,18.94
2024-04-14T05:13:00.525Z,18.99
2024-04-14T05:15:27.726Z,18.90
2024-04-14T05:17:54.952Z,18.89
2024-04-14T05:20:22.158Z,18.80
2024-04-14T05:22:50.099Z,18.83
2024-04-14T05:25:19.124Z,18.84
2024-04-14T05:30:30.917Z,18.98
2024-04-14T05:33:00.048Z,19.00
2024-04-14T05:35:29.983Z,18.90
2024-04-14T05:37:57.206Z,18.90
2024-04-14T05:40:24.356Z,18.94
2024-04-14T05:45:37.901Z,19.10
2024-04-14T05:48:05.142Z,19.12
2024-04-14T05:50:34.228Z,19.12
2024-04-14T05:53:01.930Z,19.10
2024-04-14T05:55:31.070Z,19.08
2024-04-14T06:00:44.661Z,19.09
2024-04-14T06:03:11.992Z,19.14
2024-04-14T06:05:42.061Z,19.16
2024-04-14T06:08:09.295Z,19.11
2024-04-14T06:10:40.050Z,19.13
2024-04-14T06:15:52.534Z,19.04
2024-04-14T06:18:20.694Z,19.03
2024-04-14T06:20:47.898Z,19.06
2024-04-14T06:23:18.533Z,19.16
2024-04-14T06:25:47.454Z,19.09
2024-04-14T06:31:00.285Z,19.20
2024-04-14T06:33:31.080Z,19.25
2024-04-14T06:35:59.088Z,19.25
2024-04-14T06:38:26.361Z,19.15
2024-04-14T06:40:54.332Z,19.25
2024-04-14T06:46:06.094Z,19.27
2024-04-14T06:48:33.328Z,19.30
2024-04-14T06:51:00.591Z,19.33
2024-04-14T06:53:28.646Z,19.34
2024-04-14T06:55:55.891Z,19.34
2024-04-14T07:01:10.541Z,19.36
2024-04-14T07:03:37.795Z,19.40
2024-04-14T07:06:08.522Z,19.42
2024-04-14T07:08:35.769Z,19.43
2024-04-14T07:11:03.758Z,19.40
2024-04-14T07:16:16.588Z,19.45
2024-04-14T07:18:43.942Z,19.47
2024-04-14T07:21:11.936Z,19.50
2024-04-14T07:23:39.143Z,19.55
2024-04-14T07:26:08.170Z,19.57
2024-04-14T07:31:25.778Z,19.60
2024-04-14T07:33:55.007Z,19.64
2024-04-14T07:36:24.140Z,19.61
2024-04-14T07:38:53.190Z,19.60
2024-04-14T07:41:21.171Z,19.59
2024-04-14T07:46:35.577Z,19.66
2024-04-14T07:49:02.811Z,19.69
2024-04-14T07:51:30.067Z,19.68
2024-04-14T07:53:59.205Z,19.71
2024-04-14T07:56:28.244Z,19.71
2024-04-14T08:01:45.057Z,19.72
2024-04-14T08:04:12.305Z,19.78
2024-04-14T08:06:41.449Z,19.79
2024-04-14T08:09:08.657Z,19.81
2024-04-14T08:11:35.893Z,19.85
2024-04-14T08:16:52.301Z,19.89
2024-04-14T08:19:19.475Z,19.86
2024-04-14T08:21:46.657Z,19.87
2024-04-14T08:24:14.667Z,19.88
2024-04-14T08:26:44.569Z,19.89
2024-04-14T08:31:59.879Z,19.96
2024-04-14T08:34:27.894Z,19.93
2024-04-14T08:36:57.835Z,19.91
2024-04-14T08:39:25.033Z,19.96
2024-04-14T08:41:53.012Z,19.94
2024-04-14T08:47:04.713Z,19.95
2024-04-14T08:49:33.748Z,19.93
2024-04-14T08:52:02.793Z,19.96
2024-04-14T08:54:30.167Z,19.94
2024-04-14T08:56:58.225Z,19.95
2024-04-14T09:02:10.166Z,19.93
2024-04-14T09:04:39.231Z,19.95
2024-04-14T09:07:07.349Z,19.92
2024-04-14T09:09:34.630Z,19.93
2024-04-14T09:12:03.670Z,19.95
2024-04-14T09:17:17.320Z,19.95
2024-04-14T09:19:44.551Z,19.97
2024-04-14T09:22:11.800Z,19.99
2024-04-14T09:24:39.065Z,19.99
2024-04-14T09:27:07.042Z,20.02
2024-04-14T09:32:19.687Z,20.04
2024-04-14T09:34:49.610Z,20.03
2024-04-14T09:37:16.768Z,20.03
2024-04-14T09:39:46.686Z,20.07
2024-04-14T09:42:15.704Z,20.03
2024-04-14T09:47:27.370Z,20.06
2024-04-14T09:49:54.610Z,20.10
2024-04-14T09:52:23.636Z,20.09
2024-04-14T09:54:50.875Z,20.07
2024-04-14T09:57:18.019Z,20.13
2024-04-14T10:02:30.875Z,20.20
2024-04-14T10:07:26.925Z,20.20
2024-04-14T10:09:54.173Z,20.18
2024-04-14T10:12:21.381Z,20.12
2024-04-14T10:17:45.144Z,20.14
2024-04-14T10:20:14.222Z,20.13
2024-04-14T10:22:41.467Z,20.10
2024-04-14T10:25:10.563Z,20.15
2024-04-14T10:27:39.639Z,20.16
2024-04-14T10:32:55.040Z,20.16
2024-04-14T10:35:22.312Z,20.13
2024-04-14T10:37:49.490Z,20.13
2024-04-14T10:40:16.670Z,20.15
2024-04-14T10:42:43.919Z,20.11
2024-04-14T10:47:58.705Z,20.10
2024-04-14T10:50:28.710Z,20.10
2024-04-14T10:52:55.855Z,20.11
2024-04-14T10:55:23.880Z,20.14
2024-04-14T10:57:51.925Z,20.11
2024-04-14T11:03:05.431Z,20.14
2024-04-14T11:05:34.469Z,20.18
2024-04-14T11:08:01.646Z,20.18
2024-04-14T11:10:28.793Z,20.26
2024-04-14T11:12:56.824Z,20.29
2024-04-14T11:18:19.732Z,20.19
2024-04-14T11:20:46.842Z,20.15
2024-04-14T11:23:14.787Z,20.24
2024-04-14T11:25:41.907Z,20.15
2024-04-14T11:28:09.969Z,20.15
2024-04-14T11:33:22.633Z,20.13
2024-04-14T11:35:49.864Z,20.13
2024-04-14T11:38:16.988Z,20.10
2024-04-14T11:40:44.077Z,20.13
2024-04-14T11:43:11.424Z,20.12
2024-04-14T11:48:22.892Z,20.08
2024-04-14T11:50:50.182Z,20.15
2024-04-14T11:53:18.441Z,20.12
2024-04-14T11:55:45.839Z,20.13
2024-04-14T11:58:13.873Z,20.14
2024-04-14T12:03:26.492Z,20.10
2024-04-14T12:05:53.688Z,20.10
2024-04-14T12:08:20.762Z,20.11
2024-04-14T12:10:47.864Z,20.11
2024-04-14T12:13:15.926Z,20.09
2024-04-14T12:18:27.787Z,20.13
2024-04-14T12:20:54.872Z,20.08
2024-04-14T12:23:22.092Z,20.03
2024-04-14T12:25:50.087Z,20.02
2024-04-14T12:28:18.050Z,19.97
2024-04-14T12:31:06.306Z,20.13
2024-04-14T12:33:36.213Z,20.19
2024-04-14T12:36:03.414Z,20.15
2024-04-14T12:38:30.520Z,20.19
2024-04-14T12:41:00.420Z,20.16
2024-04-14T12:43:27.573Z,20.20
2024-04-14T12:48:40.106Z,20.16
2024-04-14T12:51:07.291Z,20.16
2024-04-14T12:53:34.468Z,20.14
2024-04-14T12:56:01.580Z,20.13
2024-04-14T12:58:28.658Z,20.11
2024-04-14T13:00:55.754Z,20.14
2024-04-14T13:03:23.228Z,20.14
2024-04-14T13:05:50.317Z,20.14
2024-04-14T13:08:17.397Z,20.12
2024-04-14T13:10:44.494Z,20.15
2024-04-14T13:13:11.586Z,20.17
2024-04-14T13:15:38.762Z,20.16
2024-04-14T13:18:05.981Z,20.20
2024-04-14T13:20:33.094Z,20.15
2024-04-14T13:23:00.172Z,20.13
2024-04-14T13:25:27.277Z,20.14
2024-04-14T13:27:55.264Z,20.15
2024-04-14T13:30:23.248Z,20.14
2024-04-14T13:32:50.387Z,20.15
2024-04-14T13:35:17.504Z,20.18
2024-04-14T13:37:44.587Z,20.17
2024-04-14T13:40:11.781Z,20.19
2024-04-14T13:45:05.868Z,20.15
2024-04-14T13:47:33.006Z,20.15
2024-04-14T13:52:26.989Z,20.20
2024-04-14T13:54:54.134Z,20.21
2024-04-14T13:57:21.241Z,20.18
2024-04-14T13:59:48.316Z,20.20
2024-04-14T14:02:16.379Z,20.23
2024-04-14T14:04:43.518Z,20.21
2024-04-14T14:07:10.645Z,20.16
2024-04-14T14:09:37.859Z,20.18
2024-04-14T14:12:04.995Z,20.20
2024-04-14T14:14:32.959Z,20.21
2024-04-14T14:17:00.205Z,20.19
2024-04-14T14:19:29.013Z,20.19
2024-04-14T14:21:56.403Z,20.20
2024-04-14T14:26:50.349Z,20.09
2024-04-14T14:29:17.488Z,20.13
2024-04-14T14:31:44.597Z,20.15
2024-04-14T14:36:57.458Z,20.12
2024-04-14T14:39:24.634Z,20.13
2024-04-14T14:41:51.796Z,20.13
2024-04-14T14:44:19.742Z,20.12
2024-04-14T14:46:46.777Z,20.16
2024-04-14T14:51:58.242Z,20.13
2024-04-14T14:54:25.358Z,20.12
2024-04-14T14:56:52.391Z,20.18
2024-04-14T14:59:19.502Z,20.15
2024-04-14T15:01:46.623Z,20.08
2024-04-14T15:06:58.328Z,19.96
2024-04-14T15:09:25.409Z,19.96
2024-04-14T15:11:52.466Z,20.00
2024-04-14T15:14:19.510Z,19.92
2024-04-14T15:16:46.601Z,19.90
2024-04-14T15:21:58.190Z,19.94
2024-04-14T15:24:25.275Z,19.88
2024-04-14T15:26:52.392Z,19.96
2024-04-14T15:29:19.482Z,19.97
2024-04-14T15:31:49.526Z,19.80
2024-04-14T15:37:01.020Z,19.66
2024-04-14T15:39:28.157Z,19.80
2024-04-14T15:41:55.260Z,19.85
2024-04-14T15:44:27.324Z,19.81
2024-04-14T15:46:55.071Z,19.79
2024-04-14T15:52:07.864Z,19.75
2024-04-14T15:54:36.001Z,19.71
2024-04-14T15:57:03.183Z,19.68
2024-04-14T15:59:33.058Z,19.66
2024-04-14T16:02:00.147Z,19.70
2024-04-14T16:07:12.480Z,19.67
2024-04-14T16:09:39.586Z,19.62
2024-04-14T16:12:06.724Z,19.63
2024-04-14T16:14:33.783Z,19.69
2024-04-14T16:17:00.864Z,19.58
2024-04-14T16:22:12.574Z,19.52
2024-04-14T16:24:39.697Z,19.61
2024-04-14T16:27:06.809Z,19.75
2024-04-14T16:29:34.029Z,19.80
2024-04-14T16:32:01.190Z,19.81
2024-04-14T16:37:13.118Z,19.86
2024-04-14T16:39:40.232Z,19.81
2024-04-14T16:42:07.332Z,19.83
2024-04-14T16:44:34.403Z,19.85
2024-04-14T16:47:01.538Z,19.82
2024-04-14T16:52:13.067Z,19.85
2024-04-14T16:54:40.218Z,19.86
2024-04-14T16:57:07.473Z,19.85
2024-04-14T16:59:34.537Z,19.86
2024-04-14T17:02:01.579Z,19.82
2024-04-14T17:07:13.516Z,19.78
2024-04-14T17:09:40.592Z,19.75
2024-04-14T17:12:07.859Z,19.76
2024-04-14T17:14:34.986Z,19.80
2024-04-14T17:17:02.101Z,19.76
2024-04-14T17:22:13.891Z,19.74
2024-04-14T17:24:41.046Z,19.69
2024-04-14T17:27:08.201Z,19.67
2024-04-14T17:29:35.261Z,19.69
2024-04-14T17:32:02.404Z,19.68
2024-04-14T17:37:14.024Z,19.65
2024-04-14T17:39:41.155Z,19.60
2024-04-14T17:42:08.276Z,19.59
2024-04-14T17:44:35.363Z,19.60
2024-04-14T17:47:02.448Z,19.59
2024-04-14T17:52:14.517Z,19.57
2024-04-14T17:54:41.631Z,19.53
2024-04-14T17:57:08.674Z,19.50
2024-04-14T17:59:35.849Z,19.52
2024-04-14T18:02:03.010Z,19.50
2024-04-14T18:04:30.147Z,19.49
2024-04-14T18:06:57.576Z,19.45
2024-04-14T18:09:24.705Z,19.49
2024-04-14T18:11:51.753Z,19.55
2024-04-14T18:14:18.834Z,19.58
2024-04-14T18:16:45.926Z,19.62
2024-04-14T18:19:13.040Z,19.63
2024-04-14T18:21:40.204Z,19.63
2024-04-14T18:24:07.344Z,19.63
2024-04-14T18:26:34.443Z,19.64
2024-04-14T18:29:01.555Z,19.66
2024-04-14T18:31:28.729Z,19.65
2024-04-14T18:33:55.903Z,19.65
2024-04-14T18:36:23.000Z,19.65
2024-04-14T18:38:50.080Z,19.64
2024-04-14T18:41:18.037Z,19.63
2024-04-14T18:43:45.113Z,19.66
2024-04-14T18:46:12.704Z,19.65
2024-04-14T18:48:39.912Z,19.63
2024-04-14T18:51:07.089Z,19.63
2024-04-14T18:53:34.220Z,19.63
2024-04-14T18:56:01.280Z,19.64
2024-04-14T18:58:31.339Z,19.64
2024-04-14T19:00:59.865Z,19.63
2024-04-14T19:03:27.035Z,19.62
2024-04-14T19:05:54.144Z,19.62
2024-04-14T19:08:22.124Z,19.61
2024-04-14T19:10:49.221Z,19.63
2024-04-14T19:13:16.352Z,19.61
2024-04-14T19:15:43.453Z,19.60
2024-04-14T19:18:11.605Z,19.59
2024-04-14T19:20:38.858Z,19.60
2024-04-14T19:23:05.999Z,19.62
2024-04-14T19:25:33.113Z,19.60
2024-04-14T19:28:00.231Z,19.60
2024-04-14T19:30:27.367Z,19.59
2024-04-14T19:32:54.505Z,19.62
2024-04-14T19:35:21.636Z,19.61
2024-04-14T19:40:33.375Z,19.60
2024-04-14T19:43:00.496Z,19.59
2024-04-14T19:45:27.635Z,19.60
2024-04-14T19:47:54.818Z,19.61
2024-04-14T19:50:21.967Z,19.63
2024-04-14T19:55:33.440Z,19.59
2024-04-14T19:58:00.544Z,19.59
2024-04-14T20:00:27.728Z,19.59
2024-04-14T20:02:54.837Z,19.60
2024-04-14T20:05:21.926Z,19.60
2024-04-14T20:10:33.793Z,19.58
2024-04-14T20:13:01.020Z,19.62
2024-04-14T20:15:28.184Z,19.59
2024-04-14T20:17:55.320Z,19.58
2024-04-14T20:20:22.438Z,19.59
2024-04-14T20:25:34.223Z,19.58
2024-04-14T20:28:01.341Z,19.57
2024-04-14T20:30:28.452Z,19.60
2024-04-14T20:32:55.579Z,19.58
2024-04-14T20:35:24.838Z,19.58
2024-04-14T20:40:36.642Z,19.58
2024-04-14T20:43:03.835Z,19.58
2024-04-14T20:45:30.940Z,19.57
2024-04-14T20:47:58.082Z,19.57
2024-04-14T20:50:25.194Z,19.58
2024-04-14T20:55:36.977Z,19.56
2024-04-14T20:58:04.170Z,19.56
2024-04-14T21:00:31.487Z,19.56
2024-04-14T21:02:58.597Z,19.54
2024-04-14T21:05:25.716Z,19.55
2024-04-14T21:10:37.187Z,19.54
2024-04-14T21:13:04.314Z,19.53
2024-04-14T21:15:31.402Z,19.55
2024-04-14T21:17:58.634Z,19.55
2024-04-14T21:20:25.755Z,19.53
2024-04-14T21:25:47.433Z,19.54
2024-04-14T21:28:14.543Z,19.54
2024-04-14T21:30:41.726Z,19.53
2024-04-14T21:33:08.970Z,19.53
2024-04-14T21:35:36.100Z,19.52
2024-04-14T21:40:47.797Z,19.52
2024-04-14T21:43:14.929Z,19.50
2024-04-14T21:45:42.051Z,19.50
2024-04-14T21:48:09.244Z,19.50
2024-04-14T21:50:36.364Z,19.50
2024-04-14T21:55:48.132Z,19.48
2024-04-14T21:58:15.341Z,19.47
2024-04-14T22:00:42.579Z,19.48
2024-04-14T22:03:09.710Z,19.46
2024-04-14T22:05:36.778Z,19.45
2024-04-14T22:10:48.308Z,19.46
2024-04-14T22:13:15.474Z,19.44
2024-04-14T22:15:42.576Z,19.44
2024-04-14T22:18:09.741Z,19.43
2024-04-14T22:20:36.830Z,19.41
2024-04-14T22:25:58.345Z,19.41
2024-04-14T22:28:28.204Z,19.42
2024-04-14T22:30:55.279Z,19.41
2024-04-14T22:33:22.358Z,19.41
2024-04-14T22:35:49.448Z,19.41
2024-04-14T22:41:02.246Z,19.40
2024-04-14T22:43:29.343Z,19.40
2024-04-14T22:45:56.501Z,19.38
2024-04-14T22:48:23.624Z,19.38
2024-04-14T22:50:50.700Z,19.39
2024-04-14T22:56:02.444Z,19.37
2024-04-14T22:58:29.505Z,19.33
2024-04-14T23:00:56.658Z,19.35
2024-04-14T23:03:23.805Z,19.35
2024-04-14T23:05:50.884Z,19.35
2024-04-14T23:11:02.449Z,19.34
2024-04-14T23:13:29.541Z,19.33
2024-04-14T23:15:56.660Z,19.34
2024-04-14T23:18:23.902Z,19.35
2024-04-14T23:20:51.166Z,19.33
2024-04-14T23:26:03.915Z,19.32
2024-04-14T23:28:31.034Z,19.33
2024-04-14T23:30:58.168Z,19.34
2024-04-14T23:33:25.255Z,19.32
2024-04-14T23:35:52.335Z,19.32
2024-04-14T23:38:19.455Z,19.31
2024-04-14T23:40:46.564Z,19.33
2024-04-14T23:43:13.688Z,19.32
2024-04-14T23:45:41.869Z,19.31
2024-04-14T23:48:09.047Z,19.30
2024-04-14T23:50:36.132Z,19.29
2024-04-14T23:53:03.206Z,19.29
2024-04-14T23:55:30.304Z,19.29
2024-04-14T23:57:57.466Z,19.31
